Estación de Socoroma INIA
Ultimos registro cada 15 minutos 56
| N° | Estación | Fecha / Hora | Temperatura | Humedad | Lluvia | Velocidad | Dirección | Radiación | Presion |
| 56 | Socoroma INIA | 10-05-2026 13:45 | 18,9 | 16,1 | 0 | 5,5 | 252 | 827 | 701,2 |
| 55 | Socoroma INIA | 10-05-2026 13:30 | 19,1 | 13,9 | 0 | 4,4 | 268 | 839 | 701,5 |
| 54 | Socoroma INIA | 10-05-2026 13:15 | 18,8 | 14,5 | 0 | 4,4 | 262 | 850 | 701,7 |
| 53 | Socoroma INIA | 10-05-2026 13:00 | 19,2 | 14,4 | 0 | 4,5 | 267 | 857 | 701,7 |
| 52 | Socoroma INIA | 10-05-2026 12:45 | 18,9 | 14,6 | 0 | 4,7 | 271 | 862 | 701,7 |
| 51 | Socoroma INIA | 10-05-2026 12:30 | 19 | 15,9 | 0 | 3,7 | 284 | 862 | 701,7 |
| 50 | Socoroma INIA | 10-05-2026 12:15 | 18,8 | 14,7 | 0 | 4 | 270 | 858 | 701,9 |
| 49 | Socoroma INIA | 10-05-2026 12:00 | 18,8 | 15,5 | 0 | 3 | 283 | 849 | 702 |
| 48 | Socoroma INIA | 10-05-2026 11:45 | 18,4 | 14 | 0 | 3,1 | 293 | 834 | 702,1 |
| 47 | Socoroma INIA | 10-05-2026 11:30 | 18,5 | 14,4 | 0 | 3,1 | 285 | 817 | 702,2 |
| 46 | Socoroma INIA | 10-05-2026 11:15 | 18,5 | 14,1 | 0 | 2,7 | 297 | 792 | 702,1 |
| 45 | Socoroma INIA | 10-05-2026 11:00 | 18,4 | 14,8 | 0 | 2,4 | 292 | 765 | 702,2 |
| 44 | Socoroma INIA | 10-05-2026 10:45 | 18,2 | 14,8 | 0 | 2,2 | 307 | 733 | 702,2 |
| 43 | Socoroma INIA | 10-05-2026 10:30 | 17,9 | 17,4 | 0 | 2,1 | 292 | 698 | 702,2 |
| 42 | Socoroma INIA | 10-05-2026 10:15 | 17,6 | 17,5 | 0 | 2,2 | 305 | 659 | 702 |
| 41 | Socoroma INIA | 10-05-2026 10:00 | 18,3 | 17,6 | 0 | 0,8 | 294 | 619 | 702 |
| 40 | Socoroma INIA | 10-05-2026 09:45 | 18,5 | 14,4 | 0 | 0 | 0 | 575 | 701,8 |
| 39 | Socoroma INIA | 10-05-2026 09:30 | 16,6 | 17 | 0 | 0 | 0 | 526 | 701,8 |
| 38 | Socoroma INIA | 10-05-2026 09:15 | 15,9 | 19,2 | 0 | 0,2 | 18 | 476 | 701,8 |
| 37 | Socoroma INIA | 10-05-2026 09:00 | 14,9 | 17,6 | 0 | 0 | 0 | 422 | 701,7 |
| 36 | Socoroma INIA | 10-05-2026 08:45 | 14,3 | 18,1 | 0 | 0 | 0 | 365 | 701,7 |
| 35 | Socoroma INIA | 10-05-2026 08:30 | 13,5 | 18,5 | 0 | 0,9 | 91 | 309 | 701,5 |
| 34 | Socoroma INIA | 10-05-2026 08:15 | 11,3 | 18,6 | 0 | 0 | 0 | 248 | 701,3 |
| 33 | Socoroma INIA | 10-05-2026 08:00 | 10,1 | 21,3 | 0 | 0 | 0 | 22 | 701,3 |
| 32 | Socoroma INIA | 10-05-2026 07:45 | 10,5 | 22 | 0 | 0 | 0 | 15 | 701 |
| 31 | Socoroma INIA | 10-05-2026 07:30 | 9,9 | 20,8 | 0 | 0,1 | 141 | 13 | 701 |
| 30 | Socoroma INIA | 10-05-2026 07:15 | 9,4 | 22,4 | 0 | 1,3 | 164 | 9 | 700,8 |
| 29 | Socoroma INIA | 10-05-2026 07:00 | 8,8 | 22 | 0 | 0,8 | 166 | 3 | 700,7 |
| 28 | Socoroma INIA | 10-05-2026 06:45 | 9,5 | 22 | 0 | 0 | 0 | 0 | 700,5 |
| 27 | Socoroma INIA | 10-05-2026 06:30 | 9,8 | 20,6 | 0 | 0 | 0 | 0 | 700,4 |
| 26 | Socoroma INIA | 10-05-2026 06:15 | 9,5 | 20,7 | 0 | 0 | 0 | 0 | 700,2 |
| 25 | Socoroma INIA | 10-05-2026 06:00 | 9,7 | 20,8 | 0 | 0 | 0 | 0 | 700,1 |
| 24 | Socoroma INIA | 10-05-2026 05:45 | 10,5 | 20 | 0 | 0 | 0 | 0 | 700,1 |
| 23 | Socoroma INIA | 10-05-2026 05:30 | 10,1 | 19,7 | 0 | 0 | 0 | 0 | 700,2 |
| 22 | Socoroma INIA | 10-05-2026 05:15 | 9,8 | 20,8 | 0 | 0 | 0 | 0 | 700,3 |
| 21 | Socoroma INIA | 10-05-2026 05:00 | 10 | 20,1 | 0 | 0 | 0 | 0 | 700,4 |
| 20 | Socoroma INIA | 10-05-2026 04:45 | 9,4 | 21 | 0 | 0 | 0 | 0 | 700,4 |
| 19 | Socoroma INIA | 10-05-2026 04:30 | 9,6 | 21,4 | 0 | 0 | 0 | 0 | 700,4 |
| 18 | Socoroma INIA | 10-05-2026 04:15 | 9,4 | 21 | 0 | 1,6 | 171 | 0 | 700,4 |
| 17 | Socoroma INIA | 10-05-2026 04:00 | 9,5 | 20,9 | 0 | 0,2 | 123 | 0 | 700,3 |
| 16 | Socoroma INIA | 10-05-2026 03:45 | 9,6 | 21,4 | 0 | 0,1 | 115 | 0 | 700 |
| 15 | Socoroma INIA | 10-05-2026 03:30 | 9,7 | 21,1 | 0 | 1,6 | 157 | 0 | 700 |
| 14 | Socoroma INIA | 10-05-2026 03:15 | 9,9 | 21,2 | 0 | 0,1 | 147 | 0 | 700 |
| 13 | Socoroma INIA | 10-05-2026 03:00 | 9,4 | 21,6 | 0 | 0 | 0 | 0 | 699,9 |
| 12 | Socoroma INIA | 10-05-2026 02:45 | 9,7 | 21,6 | 0 | 0 | 0 | 0 | 700 |
| 11 | Socoroma INIA | 10-05-2026 02:30 | 10 | 21,2 | 0 | 0 | 0 | 0 | 700 |
| 10 | Socoroma INIA | 10-05-2026 02:15 | 10,2 | 20,9 | 0 | 0 | 0 | 0 | 699,9 |
| 9 | Socoroma INIA | 10-05-2026 02:00 | 10,4 | 20,5 | 0 | 0,4 | 127 | 0 | 699,9 |
| 8 | Socoroma INIA | 10-05-2026 01:45 | 10,5 | 20,2 | 0 | 1,2 | 135 | 0 | 700 |
| 7 | Socoroma INIA | 10-05-2026 01:30 | 11 | 20,4 | 0 | 0 | 0 | 0 | 700,2 |
| 6 | Socoroma INIA | 10-05-2026 01:15 | 10,6 | 19,7 | 0 | 0,2 | 115 | 0 | 700,4 |
| 5 | Socoroma INIA | 10-05-2026 01:00 | 10,5 | 21,7 | 0 | 0,3 | 82 | 0 | 700,4 |
| 4 | Socoroma INIA | 10-05-2026 00:45 | 10,4 | 20,1 | 0 | 0 | 201 | 0 | 700,5 |
| 3 | Socoroma INIA | 10-05-2026 00:30 | 10,4 | 21,9 | 0 | 1,6 | 151 | 0 | 700,6 |
| 2 | Socoroma INIA | 10-05-2026 00:15 | 10,6 | 21,2 | 0 | 1,2 | 138 | 0 | 700,8 |
| 1 | Socoroma INIA | 10-05-2026 00:00 | 10,2 | 20,8 | 0 | 1,4 | 138 | 0 | 700,8 |